Time;durP1;ratioP1;P1;durP2;ratioP2;P2;SDS_P1;SDS_P2;PMS_P1;PMS_P2;Temp;Humidity;BMP_temperature;BMP_pressure;BME280_temperature;BME280_humidity;BME280_pressure;Samples;Min_cycle;Max_cycle;Signal;HPM_P1;HPM_P2
2021/12/08 00:02:16;;;;;;;4.10;3.70;;;;;;;9.49;52.54;99214.87;1750013;81;21097;-65
2021/12/08 00:04:44;;;;;;;4.40;3.60;;;;;;;9.49;52.54;99206.91;1749956;81;21088;-64
2021/12/08 00:07:11;;;;;;;4.17;3.65;;;;;;;9.49;52.56;99212.22;1753667;81;22001;-64
2021/12/08 00:10:00;;;;;;;3.95;3.65;;;;;;;9.48;52.53;99222.48;1732556;81;21037;-65
2021/12/08 00:15:01;;;;;;;3.70;3.35;;;;;;;9.48;52.55;99216.36;1732616;81;21016;-65
2021/12/08 00:17:28;;;;;;;3.83;3.50;;;;;;;9.47;52.53;99215.55;1747824;81;21661;-64
2021/12/08 00:19:54;;;;;;;4.45;3.72;;;;;;;9.47;52.55;99214.22;1728526;81;21113;-65
2021/12/08 00:22:20;;;;;;;3.87;3.58;;;;;;;9.46;52.55;99217.85;1736056;81;21084;-64
2021/12/08 00:24:47;;;;;;;3.75;3.45;;;;;;;9.47;52.55;99216.05;1738300;81;21500;-64
2021/12/08 00:27:14;;;;;;;5.08;4.58;;;;;;;9.47;52.54;99208.91;1748578;81;21061;-64
2021/12/08 00:29:40;;;;;;;3.90;3.30;;;;;;;9.47;52.54;99205.45;1750455;81;21029;-66
2021/12/08 00:32:09;;;;;;;3.98;3.58;;;;;;;9.47;52.52;99203.61;1734595;81;21111;-64
2021/12/08 00:34:36;;;;;;;4.08;3.67;;;;;;;9.45;52.51;99191.84;1744358;81;21039;-64
2021/12/08 00:37:04;;;;;;;4.12;3.35;;;;;;;9.47;52.50;99197.49;1738766;81;21029;-64
2021/12/08 00:39:33;;;;;;;4.10;3.70;;;;;;;9.46;52.51;99190.02;1744853;81;20978;-64
2021/12/08 00:41:59;;;;;;;4.28;3.47;;;;;;;9.45;52.51;99193.17;1731162;81;21018;-64
2021/12/08 00:44:26;;;;;;;5.75;3.62;;;;;;;9.45;52.51;99194.50;1735981;81;21530;-65
2021/12/08 00:46:53;;;;;;;3.92;3.50;;;;;;;9.46;52.48;99186.03;1739059;81;21019;-63
2021/12/08 00:49:20;;;;;;;4.20;3.80;;;;;;;9.45;52.48;99181.24;1734548;81;21461;-63
2021/12/08 00:51:46;;;;;;;4.17;3.60;;;;;;;9.45;52.45;99184.41;1745890;81;21277;-63
2021/12/08 00:54:12;;;;;;;3.85;3.45;;;;;;;9.45;52.46;99183.89;1727687;81;21105;-65
2021/12/08 00:56:39;;;;;;;3.90;3.55;;;;;;;9.45;52.46;99192.36;1739392;81;21188;-63
2021/12/08 00:59:06;;;;;;;4.05;3.72;;;;;;;9.46;52.45;99203.27;1739273;81;20998;-65
2021/12/08 01:01:32;;;;;;;3.70;3.40;;;;;;;9.44;52.45;99199.49;1743251;81;21038;-64
2021/12/08 01:03:59;;;;;;;3.92;3.55;;;;;;;9.45;52.45;99210.91;1743790;81;21101;-64
2021/12/08 01:06:25;;;;;;;3.85;3.45;;;;;;;9.44;52.46;99207.92;1753469;81;21021;-64
2021/12/08 01:08:51;;;;;;;4.20;3.80;;;;;;;9.44;52.45;99208.77;1751102;81;21870;-64
2021/12/08 01:11:20;;;;;;;3.95;3.58;;;;;;;9.45;52.44;99209.59;1751038;81;21093;-65
2021/12/08 01:13:47;;;;;;;3.58;3.27;;;;;;;9.45;52.41;99212.23;1738257;81;21037;-64
2021/12/08 01:16:14;;;;;;;4.50;3.90;;;;;;;9.45;52.42;99217.55;1741403;81;21754;-66
2021/12/08 01:18:41;;;;;;;4.47;3.70;;;;;;;9.45;52.42;99218.87;1744618;81;21096;-65
2021/12/08 01:21:09;;;;;;;3.75;3.45;;;;;;;9.45;52.41;99216.22;1746085;81;21104;-64
2021/12/08 01:23:38;;;;;;;3.83;3.47;;;;;;;9.45;52.41;99218.87;1736926;81;21077;-65
2021/12/08 01:26:06;;;;;;;4.12;3.72;;;;;;;9.45;52.42;99216.22;1742438;81;21493;-64
2021/12/08 01:28:33;;;;;;;3.72;3.40;;;;;;;9.44;52.41;99211.42;1742776;81;21078;-65
2021/12/08 01:31:01;;;;;;;3.70;3.40;;;;;;;9.43;52.40;99203.13;1735610;81;21073;-65
2021/12/08 01:33:31;;;;;;;3.70;3.40;;;;;;;9.43;52.41;99193.03;1758028;81;21865;-64
2021/12/08 01:35:58;;;;;;;3.85;3.55;;;;;;;9.42;52.39;99192.19;1740514;81;21058;-64
2021/12/08 01:38:25;;;;;;;3.87;3.47;;;;;;;9.42;52.41;99182.91;1757198;81;21041;-65
2021/12/08 01:40:51;;;;;;;3.95;3.55;;;;;;;9.42;52.41;99184.23;1748054;81;21061;-66
2021/12/08 01:43:26;;;;;;;4.05;3.65;;;;;;;9.42;52.41;99179.44;1741955;81;21227;-64
2021/12/08 01:46:03;;;;;;;4.10;3.70;;;;;;;9.42;52.42;99186.06;1741023;81;21209;-64
2021/12/08 01:48:36;;;;;;;4.20;3.75;;;;;;;9.41;52.40;99184.43;1742950;81;21637;-64
2021/12/08 01:51:11;;;;;;;3.85;3.50;;;;;;;9.41;52.41;99188.41;1746419;81;21033;-64
2021/12/08 01:53:40;;;;;;;3.90;3.50;;;;;;;9.41;52.39;99197.17;1739102;81;21054;-64
2021/12/08 01:56:07;;;;;;;4.03;3.55;;;;;;;9.40;52.39;99194.69;1756873;81;21110;-64
2021/12/08 01:58:34;;;;;;;3.70;3.40;;;;;;;9.40;52.42;99190.72;1755658;81;21143;-63
2021/12/08 02:01:07;;;;;;;3.65;3.35;;;;;;;9.39;52.41;99191.22;1746039;81;21513;-64
2021/12/08 02:03:34;;;;;;;4.12;3.58;;;;;;;9.40;52.39;99190.72;1747737;81;21006;-64
2021/12/08 02:06:02;;;;;;;4.10;3.70;;;;;;;9.39;52.39;99183.78;1741423;81;21021;-63
2021/12/08 02:08:29;;;;;;;3.60;3.27;;;;;;;9.39;52.39;99185.92;1745256;81;21545;-64
2021/12/08 02:10:56;;;;;;;3.92;3.52;;;;;;;9.39;52.39;99180.63;1747348;81;21144;-65
2021/12/08 02:13:22;;;;;;;4.17;3.77;;;;;;;9.39;52.41;99172.66;1741849;81;21037;-64
2021/12/08 02:15:49;;;;;;;4.80;3.58;;;;;;;9.39;52.37;99183.27;1736966;81;21064;-64
2021/12/08 02:18:16;;;;;;;3.75;3.45;;;;;;;9.39;52.38;99182.45;1740588;81;21043;-64
2021/12/08 02:20:46;;;;;;;4.30;3.87;;;;;;;9.40;52.36;99184.09;1745750;81;21666;-64
2021/12/08 02:23:13;;;;;;;3.47;3.17;;;;;;;9.39;52.37;99183.27;1757467;81;21767;-64
2021/12/08 02:25:40;;;;;;;3.92;3.52;;;;;;;9.39;52.36;99173.99;1737267;81;21043;-62
2021/12/08 02:28:08;;;;;;;4.00;3.60;;;;;;;9.39;52.35;99171.84;1759852;81;21580;-63
2021/12/08 02:30:42;;;;;;;3.85;3.50;;;;;;;9.39;52.35;99173.99;1744030;81;21096;-64
2021/12/08 02:47:05;;;;;;;4.20;3.80;;;;;;;9.34;52.38;99171.02;1737321;81;21052;-65
2021/12/08 02:49:21;;;;;;;4.80;4.20;;;;;;;9.33;52.40;99170.72;1741260;81;21148;-64
2021/12/08 02:51:50;;;;;;;4.08;3.67;;;;;;;9.33;52.39;99168.55;1735570;81;21610;-64
2021/12/08 02:54:17;;;;;;;4.70;4.25;;;;;;;9.33;52.41;99161.44;1743802;81;21048;-64
2021/12/08 02:56:43;;;;;;;4.90;4.10;;;;;;;9.33;52.42;99164.56;1748225;81;21065;-64
2021/12/08 02:59:10;;;;;;;4.47;4.08;;;;;;;9.33;52.40;99167.22;1759698;81;21048;-62
2021/12/08 03:01:37;;;;;;;4.70;4.28;;;;;;;9.33;52.41;99167.22;1751387;81;21146;-64
2021/12/08 03:04:04;;;;;;;4.15;3.75;;;;;;;9.33;52.41;99164.09;1743479;81;21010;-65
2021/12/08 03:06:31;;;;;;;4.65;4.05;;;;;;;9.34;52.39;99170.21;1735669;81;21034;-64
2021/12/08 03:08:58;;;;;;;4.30;3.90;;;;;;;9.34;52.38;99176.84;1753824;81;21041;-63
2021/12/08 03:11:25;;;;;;;4.50;4.10;;;;;;;9.35;52.38;99171.84;1757942;81;21029;-64
2021/12/08 03:14:08;;;;;;;4.95;4.22;;;;;;;9.33;52.38;99172.04;1746450;81;21158;-63
2021/12/08 03:16:37;;;;;;;4.40;4.00;;;;;;;9.34;52.35;99174.19;1743420;81;21048;-63
2021/12/08 03:19:04;;;;;;;4.60;4.20;;;;;;;9.34;52.34;99178.16;1752759;81;21065;-64
2021/12/08 03:21:32;;;;;;;4.53;4.03;;;;;;;9.34;52.34;99176.84;1750091;81;21034;-63
2021/12/08 03:27:05;;;;;;;6.17;4.95;;;;;;;9.34;52.33;99175.52;1743671;81;21133;-63
2021/12/08 03:30:14;;;;;;;4.60;4.20;;;;;;;9.33;52.33;99169.39;1735039;81;21012;-65
2021/12/08 03:31:46;;;;;;;4.80;4.03;;;;;;;9.32;52.35;99165.08;1749055;81;22880;-66
2021/12/08 03:34:12;;;;;;;4.95;4.45;;;;;;;9.33;52.33;99161.92;1739646;81;21056;-64
2021/12/08 03:36:39;;;;;;;4.97;4.47;;;;;;;9.33;52.34;99148.66;1748344;81;21025;-64
2021/12/08 03:39:06;;;;;;;4.85;4.35;;;;;;;9.32;52.32;99161.09;1742633;81;21165;-65
2021/12/08 03:41:34;;;;;;;4.85;4.30;;;;;;;9.32;52.32;99161.61;1736907;81;21316;-65
2021/12/08 03:44:01;;;;;;;4.53;4.00;;;;;;;9.32;52.32;99162.42;1737276;81;21568;-65
2021/12/08 03:46:31;;;;;;;4.95;4.42;;;;;;;9.33;52.31;99165.42;1748486;81;21044;-64
2021/12/08 03:48:57;;;;;;;4.75;3.95;;;;;;;9.33;52.28;99160.11;1740137;81;21286;-64
2021/12/08 03:51:24;;;;;;;5.45;4.67;;;;;;;9.33;52.31;99156.62;1740423;81;22162;-64
2021/12/08 03:53:50;;;;;;;4.75;4.35;;;;;;;9.33;52.27;99159.27;1756287;81;21635;-63
2021/12/08 03:56:17;;;;;;;5.17;4.67;;;;;;;9.33;52.28;99152.16;1747935;81;21061;-63
2021/12/08 03:58:43;;;;;;;4.60;4.20;;;;;;;9.33;52.28;99152.64;1759739;81;21587;-63
2021/12/08 04:01:09;;;;;;;5.25;4.50;;;;;;;9.33;52.28;99163.23;1740475;81;21461;-65
2021/12/08 04:03:36;;;;;;;5.50;5.00;;;;;;;9.33;52.27;99153.96;1753289;81;21154;-66
2021/12/08 04:06:13;;;;;;;5.55;4.95;;;;;;;9.33;52.25;99156.62;1763765;81;21491;-64
2021/12/08 04:08:52;;;;;;;5.78;4.78;;;;;;;9.33;52.26;99159.27;1744803;81;21624;-63
2021/12/08 04:11:04;;;;;;;5.15;4.45;;;;;;;9.32;52.24;99150.50;1731777;81;21070;-64
2021/12/08 04:13:38;;;;;;;5.22;4.67;;;;;;;9.32;52.24;99162.94;1743220;81;21056;-65
2021/12/08 04:16:07;;;;;;;5.40;4.50;;;;;;;9.33;52.25;99171.20;1745429;81;21115;-64
2021/12/08 04:18:33;;;;;;;5.37;4.87;;;;;;;9.32;52.22;99166.40;1750160;81;21534;-64
2021/12/08 04:21:00;;;;;;;6.00;5.00;;;;;;;9.32;52.25;99162.94;1751728;81;21079;-63
2021/12/08 04:23:28;;;;;;;4.83;4.33;;;;;;;9.31;52.23;99166.09;1741846;81;21013;-63
2021/12/08 04:25:57;;;;;;;5.50;4.90;;;;;;;9.31;52.25;99156.81;1751689;81;21048;-63
2021/12/08 04:28:27;;;;;;;5.08;4.58;;;;;;;9.31;52.25;99148.02;1740924;81;21955;-64
2021/12/08 04:30:59;;;;;;;6.05;5.42;;;;;;;9.31;52.23;99155.97;1744746;81;21053;-65
2021/12/08 04:33:25;;;;;;;4.95;4.47;;;;;;;9.30;52.23;99159.12;1745526;81;21608;-63
2021/12/08 04:35:53;;;;;;;5.28;4.65;;;;;;;9.31;52.25;99161.27;1720572;82;21087;-63
2021/12/08 04:38:28;;;;;;;5.92;5.33;;;;;;;9.30;52.22;99151.17;1756276;81;21013;-63
2021/12/08 04:41:06;;;;;;;5.10;4.60;;;;;;;9.30;52.22;99151.17;1751761;81;21136;-63
2021/12/08 04:43:41;;;;;;;5.00;4.45;;;;;;;9.29;52.21;99160.14;1753126;80;21087;-63
2021/12/08 04:46:34;;;;;;;5.55;5.00;;;;;;;9.29;52.22;99163.27;1738157;81;21034;-63
2021/12/08 04:54:05;;;;;;;5.85;5.25;;;;;;;9.28;52.22;99166.42;1765376;81;22031;-64
2021/12/08 05:04:41;;;;;;;5.78;4.78;;;;;;;9.27;52.23;99158.64;1745235;81;21115;-64
2021/12/08 05:07:31;;;;;;;6.28;5.22;;;;;;;9.25;52.24;99171.59;1753704;81;21128;-63
2021/12/08 05:09:47;;;;;;;5.40;4.58;;;;;;;9.24;52.25;99171.24;1745443;81;21540;-64
2021/12/08 05:12:22;;;;;;;6.22;5.10;;;;;;;9.23;52.26;99173.59;1757383;81;21126;-64
2021/12/08 05:14:54;;;;;;;7.03;5.42;;;;;;;9.25;52.26;99182.66;1761615;81;21643;-65
2021/12/08 05:17:29;;;;;;;6.17;5.30;;;;;;;9.24;52.27;99179.20;1749422;81;21521;-65
2021/12/08 05:19:58;;;;;;;6.37;5.35;;;;;;;9.23;52.27;99172.26;1741281;81;21209;-64
2021/12/08 05:22:35;;;;;;;6.05;5.45;;;;;;;9.23;52.25;99170.94;1745976;81;21036;-64
2021/12/08 05:25:06;;;;;;;5.58;4.65;;;;;;;9.24;52.27;99178.37;1744916;81;20981;-64
2021/12/08 05:27:43;;;;;;;5.58;4.75;;;;;;;9.23;52.27;99181.53;1752764;81;21075;-64
2021/12/08 05:30:44;;;;;;;5.58;4.97;;;;;;;9.23;52.26;99173.59;1750781;81;21039;-66
2021/12/08 05:33:11;;;;;;;5.12;4.62;;;;;;;9.22;52.26;99177.22;1762918;81;21090;-65
2021/12/08 05:35:39;;;;;;;7.08;5.92;;;;;;;9.22;52.27;99177.22;1753638;81;20982;-65
2021/12/08 05:38:05;;;;;;;5.87;5.28;;;;;;;9.22;52.28;99181.70;1750529;81;21037;-64
2021/12/08 05:40:49;;;;;;;5.20;4.70;;;;;;;9.21;52.29;99180.89;1739758;81;21068;-64
2021/12/08 05:43:16;;;;;;;5.62;4.90;;;;;;;9.22;52.28;99181.70;1739563;81;22032;-65
2021/12/08 05:45:42;;;;;;;5.58;4.97;;;;;;;9.22;52.28;99183.84;1744889;81;21257;-64
2021/12/08 05:48:09;;;;;;;6.08;5.08;;;;;;;9.22;52.28;99181.20;1747784;81;21068;-64
2021/12/08 05:50:47;;;;;;;6.08;5.00;;;;;;;9.22;52.29;99178.55;1756607;81;21021;-65
2021/12/08 05:53:14;;;;;;;5.58;5.08;;;;;;;9.22;52.26;99182.52;1747248;81;21033;-64
2021/12/08 05:55:41;;;;;;;6.60;5.35;;;;;;;9.22;52.27;99175.89;1741371;81;21024;-64
2021/12/08 05:58:08;;;;;;;6.72;5.40;;;;;;;9.22;52.26;99174.56;1748287;81;21191;-64
2021/12/08 06:00:43;;;;;;;6.10;4.67;;;;;;;9.23;52.26;99185.98;1756138;79;21694;-65
2021/12/08 06:03:10;;;;;;;7.40;4.97;;;;;;;9.23;52.26;99189.97;1759755;81;21013;-65
2021/12/08 06:05:38;;;;;;;5.22;4.50;;;;;;;9.23;52.25;99175.39;1761331;81;21090;-64
2021/12/08 06:08:05;;;;;;;5.97;5.00;;;;;;;9.23;52.24;99190.81;1756705;81;21040;-65
2021/12/08 06:10:35;;;;;;;5.55;4.85;;;;;;;9.24;52.25;99190.30;1754454;81;21909;-64
2021/12/08 06:13:01;;;;;;;5.83;4.80;;;;;;;9.24;52.25;99191.63;1745689;81;21061;-63
2021/12/08 06:15:29;;;;;;;6.17;5.20;;;;;;;9.24;52.23;99188.47;1751417;81;21029;-65
2021/12/08 06:17:56;;;;;;;6.40;5.10;;;;;;;9.24;52.22;99193.77;1751949;81;21041;-65
2021/12/08 06:20:22;;;;;;;5.05;4.55;;;;;;;9.24;52.20;99190.30;1756799;80;21063;-64
2021/12/08 06:22:50;;;;;;;5.35;4.75;;;;;;;9.25;52.22;99187.48;1752289;80;21806;-64
2021/12/08 06:25:19;;;;;;;5.47;4.80;;;;;;;9.25;52.18;99184.84;1760863;80;21062;-65
2021/12/08 06:27:46;;;;;;;5.87;5.28;;;;;;;9.25;52.17;99182.19;1744192;81;20995;-65
2021/12/08 06:30:16;;;;;;;5.15;4.62;;;;;;;9.25;52.19;99183.98;1753733;81;21100;-65
2021/12/08 06:32:43;;;;;;;5.45;4.85;;;;;;;9.24;52.20;99187.15;1754387;81;21553;-65
2021/12/08 06:35:14;;;;;;;4.62;4.05;;;;;;;9.25;52.18;99192.78;1756844;81;21072;-65
2021/12/08 06:37:42;;;;;;;5.90;4.83;;;;;;;9.25;52.18;99200.74;1740961;81;21501;-66
2021/12/08 06:40:26;;;;;;;5.25;4.67;;;;;;;9.23;52.19;99188.64;1741846;81;21044;-65
2021/12/08 06:42:54;;;;;;;;;;;;;;;9.25;52.18;99194.59;1751745;81;21101;-65
2021/12/08 06:45:25;;;;;;;5.53;4.75;;;;;;;9.25;52.17;99202.54;1754490;81;20177;-62
2021/12/08 06:47:53;;;;;;;5.37;4.55;;;;;;;9.22;52.25;99202.91;1746792;80;21733;-64
2021/12/08 06:50:28;;;;;;;5.35;4.62;;;;;;;9.21;52.26;99198.11;1750233;81;21017;-64
2021/12/08 06:52:55;;;;;;;6.40;5.10;;;;;;;9.21;52.27;99196.78;1750679;79;21081;-64
2021/12/08 06:55:29;;;;;;;5.08;4.58;;;;;;;9.23;52.26;99196.11;1741291;81;21096;-65
2021/12/08 06:58:12;;;;;;;4.87;4.15;;;;;;;9.23;52.27;99193.94;1750603;81;21004;-65
2021/12/08 07:01:27;;;;;;;4.85;4.22;;;;;;;9.23;52.25;99185.52;1749807;81;21783;-63
2021/12/08 07:03:39;;;;;;;5.53;4.90;;;;;;;9.24;52.28;99181.03;1744220;81;21131;-65
2021/12/08 07:06:12;;;;;;;5.40;4.90;;;;;;;9.23;52.26;99180.21;1738037;81;21040;-66
2021/12/08 07:08:48;;;;;;;5.25;4.62;;;;;;;9.23;52.27;99188.16;1749303;79;21039;-64
2021/12/08 07:11:17;;;;;;;4.97;4.40;;;;;;;9.23;52.28;99184.19;1755164;81;21559;-64
2021/12/08 07:13:44;;;;;;;5.12;4.22;;;;;;;9.25;52.30;99191.94;1745366;81;21567;-65
2021/12/08 07:16:15;;;;;;;5.62;4.55;;;;;;;9.25;52.27;99186.64;1754081;81;21115;-64
2021/12/08 07:19:08;;;;;;;5.62;4.45;;;;;;;9.25;52.25;99190.14;1757461;80;21075;-65
2021/12/08 07:21:34;;;;;;;5.20;4.25;;;;;;;9.27;52.24;99187.80;1741847;81;21043;-65
2021/12/08 07:24:08;;;;;;;4.90;4.08;;;;;;;9.27;52.22;99184.64;1754546;80;21046;-66
2021/12/08 07:26:38;;;;;;;4.83;4.17;;;;;;;9.27;52.24;99190.45;1741806;81;21216;-65
2021/12/08 07:29:07;;;;;;;4.12;3.72;;;;;;;9.27;52.23;99189.12;1749918;80;21548;-65
2021/12/08 07:31:51;;;;;;;4.92;4.40;;;;;;;9.28;52.22;99193.44;1751339;80;21461;-65
2021/12/08 07:34:19;;;;;;;4.83;4.25;;;;;;;9.28;52.22;99188.14;1749900;80;21008;-64
2021/12/08 07:37:02;;;;;;;5.35;4.58;;;;;;;9.28;52.22;99196.09;1752214;80;21087;-68
2021/12/08 07:39:33;;;;;;;4.92;4.42;;;;;;;9.27;52.21;99185.15;1758221;80;21200;-66
2021/12/08 07:42:05;;;;;;;4.53;4.10;;;;;;;9.28;52.46;99185.48;1756272;80;21413;-67
2021/12/08 07:44:32;;;;;;;5.40;4.22;;;;;;;9.28;52.56;99192.11;1761711;80;21067;-66
2021/12/08 07:47:06;;;;;;;6.87;4.92;;;;;;;9.29;52.61;99192.42;1751919;80;21035;-66
2021/12/08 07:49:42;;;;;;;5.35;4.45;;;;;;;9.29;52.60;99186.65;1759631;80;21591;-65
2021/12/08 07:52:14;;;;;;;5.53;4.62;;;;;;;9.30;52.63;99187.47;1758920;80;21103;-65
2021/12/08 07:54:41;;;;;;;5.03;4.00;;;;;;;9.30;52.58;99188.79;1762427;80;21528;-64
2021/12/08 07:57:14;;;;;;;5.78;4.85;;;;;;;9.30;52.56;99186.95;1747655;80;21031;-66
2021/12/08 07:59:41;;;;;;;4.62;4.00;;;;;;;9.31;52.56;99182.47;1743689;81;21545;-65
2021/12/08 08:02:08;;;;;;;4.75;4.00;;;;;;;9.31;52.52;99189.09;1748316;80;21023;-64
2021/12/08 08:04:39;;;;;;;5.10;4.55;;;;;;;9.32;52.50;99188.11;1757619;80;21142;-63
2021/12/08 08:07:06;;;;;;;5.58;4.58;;;;;;;9.32;52.48;99192.09;1763922;79;21062;-64
2021/12/08 08:09:39;;;;;;;6.40;4.75;;;;;;;9.32;52.46;99185.46;1771649;80;21539;-63
2021/12/08 08:12:08;;;;;;;5.22;4.33;;;;;;;9.32;52.43;99173.03;1759137;80;21047;-64
2021/12/08 08:14:42;;;;;;;5.85;4.25;;;;;;;9.33;52.41;99180.47;1760055;80;21057;-64
2021/12/08 08:17:11;;;;;;;;;;;;;;;9.33;52.38;99186.63;1752470;81;21125;-64
2021/12/08 08:19:44;;;;;;;5.58;4.35;;;;;;;9.33;52.38;99172.04;1757713;81;21603;-64
2021/12/08 08:22:09;;;;;;;4.90;4.20;;;;;;;9.30;52.38;99175.53;1755198;81;21500;-65
2021/12/08 08:24:36;;;;;;;7.25;4.80;;;;;;;9.30;52.41;99177.67;1749134;81;21520;-64
2021/12/08 08:27:04;;;;;;;6.22;4.83;;;;;;;9.30;52.39;99172.88;1763252;81;21580;-65
2021/12/08 08:29:30;;;;;;;4.72;4.30;;;;;;;9.32;52.37;99173.53;1756009;81;21534;-65
2021/12/08 08:32:11;;;;;;;5.17;4.10;;;;;;;9.31;52.34;99166.09;1745567;81;21089;-64
2021/12/08 08:34:41;;;;;;;5.08;4.28;;;;;;;9.31;52.33;99154.16;1776842;80;21490;-65
2021/12/08 08:37:10;;;;;;;4.28;3.70;;;;;;;9.32;52.32;99153.66;1739785;81;21034;-62
2021/12/08 08:39:41;;;;;;;5.28;4.60;;;;;;;9.32;52.29;99155.80;1762223;80;21125;-61
2021/12/08 08:42:13;;;;;;;4.70;4.12;;;;;;;9.32;52.29;99148.35;1767902;80;21105;-62
2021/12/08 08:44:44;;;;;;;5.20;4.03;;;;;;;9.34;52.26;99142.38;1758224;80;21039;-62
2021/12/08 08:47:15;;;;;;;5.08;4.40;;;;;;;9.33;52.25;99142.88;1754500;81;21527;-63
2021/12/08 08:49:42;;;;;;;4.65;4.15;;;;;;;9.34;52.25;99137.89;1744918;81;21048;-62
2021/12/08 08:52:24;;;;;;;5.15;4.22;;;;;;;9.34;52.23;99137.08;1748352;81;21596;-64
2021/12/08 08:54:53;;;;;;;4.73;4.17;;;;;;;9.35;52.22;99130.75;1740642;81;21181;-64
2021/12/08 08:57:25;;;;;;;5.58;4.05;;;;;;;9.34;52.20;99133.09;1738114;81;21064;-64
2021/12/08 08:59:57;;;;;;;5.15;4.10;;;;;;;9.33;52.20;99129.63;1740562;81;21632;-62
2021/12/08 09:02:28;;;;;;;4.47;3.92;;;;;;;9.35;52.19;99132.08;1736405;81;21065;-63
2021/12/08 09:04:58;;;;;;;4.85;3.98;;;;;;;9.34;52.17;99138.40;1734123;81;21097;-63
2021/12/08 09:07:30;;;;;;;4.87;3.80;;;;;;;9.35;52.16;99138.70;1739521;81;21090;-64
2021/12/08 09:09:59;;;;;;;4.53;3.90;;;;;;;9.35;52.15;99142.69;1736527;81;21040;-62
2021/12/08 09:12:34;;;;;;;5.67;4.75;;;;;;;9.35;52.11;99136.91;1764174;80;21027;-62
2021/12/08 09:15:09;;;;;;;5.58;4.22;;;;;;;9.34;52.13;99137.89;1754200;81;21093;-62
2021/12/08 09:17:42;;;;;;;4.05;3.65;;;;;;;9.36;52.11;99144.34;1748011;81;21099;-62
2021/12/08 09:20:33;;;;;;;5.00;3.98;;;;;;;9.36;52.11;99144.34;1747260;81;23902;-65
2021/12/08 09:23:11;;;;;;;5.85;4.10;;;;;;;9.35;52.11;99144.86;1753519;81;21005;-62
2021/12/08 09:26:03;;;;;;;5.40;3.83;;;;;;;9.34;52.11;99149.81;1742212;81;21033;-63
2021/12/08 09:28:41;;;;;;;4.45;3.87;;;;;;;9.34;52.10;99150.33;1754180;81;21084;-62
2021/12/08 09:31:19;;;;;;;4.72;4.00;;;;;;;9.33;52.12;99149.52;1743884;81;21029;-62
2021/12/08 09:33:53;;;;;;;5.30;3.77;;;;;;;9.33;52.12;99144.69;1755547;81;21135;-63
2021/12/08 09:36:30;;;;;;;5.37;3.47;;;;;;;9.33;52.13;99138.06;1744473;81;21092;-64
2021/12/08 09:39:02;;;;;;;5.70;4.22;;;;;;;9.32;52.14;99143.05;1729608;80;21047;-63
2021/12/08 09:41:40;;;;;;;4.37;3.60;;;;;;;9.33;52.14;99144.69;1756622;81;21053;-63
2021/12/08 09:44:21;;;;;;;4.90;3.90;;;;;;;9.20;52.12;99129.38;1750890;81;21017;-64
2021/12/08 09:46:48;;;;;;;4.35;3.65;;;;;;;9.33;52.11;99142.03;1755953;81;21097;-61
2021/12/08 09:49:17;;;;;;;4.83;3.75;;;;;;;9.33;52.12;99136.73;1740255;81;21501;-63
2021/12/08 09:51:43;;;;;;;5.35;4.20;;;;;;;9.33;52.13;99133.61;1736873;81;21572;-63
2021/12/08 09:54:12;;;;;;;3.80;3.08;;;;;;;9.33;52.11;99134.93;1746181;81;21093;-63
2021/12/08 09:56:40;;;;;;;4.80;3.58;;;;;;;9.34;52.10;99134.42;1737042;81;21545;-64
2021/12/08 09:59:09;;;;;;;5.95;3.42;;;;;;;9.34;52.10;99131.77;1737128;81;21148;-61
2021/12/08 10:01:39;;;;;;;4.15;3.52;;;;;;;9.35;52.08;99138.70;1737596;81;21021;-62
2021/12/08 10:04:05;;;;;;;4.30;3.60;;;;;;;9.34;52.10;99140.55;1744600;81;21080;-62
2021/12/08 10:06:33;;;;;;;3.70;3.30;;;;;;;9.35;52.07;99141.36;1741023;81;21112;-62
2021/12/08 10:08:59;;;;;;;3.92;3.52;;;;;;;9.35;52.05;99130.75;1741305;81;21540;-62
2021/12/08 10:11:28;;;;;;;4.03;3.52;;;;;;;9.35;52.04;99138.70;1743193;81;21142;-63
2021/12/08 10:13:55;;;;;;;3.55;3.08;;;;;;;9.35;52.03;99137.38;1742442;81;21089;-64
2021/12/08 10:16:22;;;;;;;4.33;3.50;;;;;;;9.36;52.05;99135.07;1735893;81;21040;-62
2021/12/08 10:18:51;;;;;;;4.40;3.58;;;;;;;9.36;52.03;99125.80;1743674;81;21690;-61
2021/12/08 10:21:19;;;;;;;3.37;2.87;;;;;;;9.37;52.00;99128.78;1741166;81;21139;-62
2021/12/08 10:23:48;;;;;;;4.62;3.20;;;;;;;9.37;52.02;99119.50;1740896;81;21152;-63
2021/12/08 10:26:19;;;;;;;4.85;4.17;;;;;;;9.38;51.99;99114.52;1736231;81;21045;-63
2021/12/08 10:28:49;;;;;;;4.70;3.47;;;;;;;9.37;51.99;99119.00;1742941;81;20994;-63
2021/12/08 10:31:29;;;;;;;4.55;3.87;;;;;;;9.37;51.96;99117.67;1743220;81;21081;-63
2021/12/08 10:34:05;;;;;;;4.00;3.35;;;;;;;9.38;51.97;99121.14;1749129;81;21081;-62
2021/12/08 10:39:37;;;;;;;4.65;3.70;;;;;;;9.37;51.99;99109.72;1753325;81;21173;-63
2021/12/08 10:42:23;;;;;;;3.60;3.10;;;;;;;9.37;51.96;99108.91;1738166;81;21014;-62
2021/12/08 10:44:57;;;;;;;3.80;3.17;;;;;;;9.36;51.96;99108.05;1751926;81;21057;-63
2021/12/08 10:47:48;;;;;;;4.65;3.20;;;;;;;9.36;52.00;99109.37;1740391;81;21482;-64
2021/12/08 10:56:09;;;;;;;4.45;3.08;;;;;;;9.35;52.02;99100.27;1750106;81;21017;-64
2021/12/08 10:58:39;;;;;;;3.92;3.20;;;;;;;9.32;52.04;99101.45;1748701;81;21058;-65
2021/12/08 11:01:19;;;;;;;3.85;3.37;;;;;;;9.33;52.06;99099.14;1754159;81;21057;-65
2021/12/08 11:03:47;;;;;;;3.95;3.33;;;;;;;9.33;52.41;99091.20;1746805;81;21124;-62
2021/12/08 11:06:17;;;;;;;4.40;3.35;;;;;;;9.33;52.48;99092.52;1736763;81;21623;-64
2021/12/08 11:08:47;;;;;;;4.58;3.45;;;;;;;9.33;52.51;99086.37;1744000;81;21005;-64
2021/12/08 11:11:20;;;;;;;4.33;3.35;;;;;;;9.34;52.54;99082.23;1752285;81;21590;-66
2021/12/08 11:13:47;;;;;;;3.60;3.27;;;;;;;9.35;52.53;99084.37;1744625;81;21082;-64
2021/12/08 11:16:20;;;;;;;4.25;3.47;;;;;;;9.34;52.49;99082.23;1742453;81;21881;-65
2021/12/08 11:18:54;;;;;;;4.03;3.27;;;;;;;9.35;52.46;99079.06;1747988;81;21011;-63
2021/12/08 11:21:30;;;;;;;4.03;3.60;;;;;;;9.25;52.42;99063.39;1733438;80;21582;-62
2021/12/08 11:23:56;;;;;;;4.28;3.15;;;;;;;9.35;52.41;99075.94;1752334;80;21062;-63
2021/12/08 11:26:37;;;;;;;3.52;2.72;;;;;;;9.36;52.40;99080.73;1739807;81;21109;-63
2021/12/08 11:30:30;;;;;;;3.90;3.33;;;;;;;9.40;52.35;99076.72;1863383;75;28533;-64
2021/12/08 11:33:19;;;;;;;3.90;3.20;;;;;;;9.35;52.33;99077.27;1826736;77;21017;-66
2021/12/08 11:35:46;;;;;;;3.83;3.42;;;;;;;9.35;52.33;99072.44;1837466;77;22123;-63
2021/12/08 11:38:13;;;;;;;3.45;2.92;;;;;;;9.34;52.28;99068.16;1848278;77;20949;-67
2021/12/08 11:40:40;;;;;;;3.40;2.85;;;;;;;9.34;52.28;99060.20;1840233;77;21516;-64
2021/12/08 11:43:15;;;;;;;3.92;3.50;;;;;;;9.34;52.27;99065.50;1843475;77;21055;-64
2021/12/08 11:45:42;;;;;;;4.62;3.30;;;;;;;9.35;52.24;99059.19;1834461;77;20958;-61
2021/12/08 11:48:23;;;;;;;4.15;3.40;;;;;;;9.36;52.24;99066.15;1832439;77;23326;-65
2021/12/08 11:51:10;;;;;;;3.50;3.20;;;;;;;9.35;52.23;99065.33;1807741;77;21557;-66
2021/12/08 11:53:38;;;;;;;4.05;3.25;;;;;;;9.35;52.21;99060.51;1838190;77;21072;-63
2021/12/08 11:56:06;;;;;;;3.90;3.05;;;;;;;9.35;52.19;99060.51;1841435;77;21005;-63
2021/12/08 11:58:33;;;;;;;4.58;3.45;;;;;;;9.34;52.19;99054.90;1846076;77;21533;-63
2021/12/08 12:01:02;;;;;;;3.87;3.30;;;;;;;9.34;52.17;99061.02;1853975;77;21187;-64
2021/12/08 12:03:29;;;;;;;3.77;3.40;;;;;;;9.35;52.18;99055.20;1787227;80;21080;-63
2021/12/08 12:05:55;;;;;;;4.00;3.55;;;;;;;9.35;52.16;99046.77;1790616;79;21046;-64
2021/12/08 12:08:25;;;;;;;4.58;3.40;;;;;;;9.35;52.12;99040.63;1747526;80;21048;-61
2021/12/08 12:10:56;;;;;;;5.28;3.90;;;;;;;9.37;52.17;99026.73;1777569;79;21041;-62
2021/12/08 12:13:22;;;;;;;5.95;3.80;;;;;;;9.39;53.26;99032.67;1808314;79;21139;-61
2021/12/08 12:15:50;;;;;;;6.78;4.10;;;;;;;9.43;55.36;99041.91;1806616;79;21018;-62
2021/12/08 12:18:20;;;;;;;4.55;3.50;;;;;;;9.44;56.21;99047.05;1815489;79;21085;-61
2021/12/08 12:20:52;;;;;;;5.42;3.50;;;;;;;9.46;56.52;99044.19;1816721;79;21604;-61
2021/12/08 12:24:11;;;;;;;6.05;4.08;;;;;;;9.47;56.64;99041.06;1786579;80;21045;-62
2021/12/08 12:27:04;;;;;;;7.22;3.80;;;;;;;9.48;56.63;99036.88;1767455;80;21143;-62
2021/12/08 12:30:11;;;;;;;4.07;3.40;;;;;;;9.46;56.51;99036.23;1809990;78;21025;-62
2021/12/08 12:32:49;;;;;;;5.37;3.80;;;;;;;9.45;56.37;99033.28;1729784;82;21509;-62
2021/12/08 12:35:31;;;;;;;5.22;3.62;;;;;;;9.42;56.21;99042.39;1720916;81;21051;-63
2021/12/08 12:38:07;;;;;;;5.17;4.42;;;;;;;9.42;56.02;99050.86;1770277;80;21008;-63
2021/12/08 12:40:39;;;;;;;5.78;3.95;;;;;;;9.41;55.87;99054.02;1762917;81;21144;-61
2021/12/08 12:43:06;;;;;;;4.67;3.45;;;;;;;9.41;55.72;99042.09;1792216;79;21467;-64